Time;durP1;ratioP1;P1;durP2;ratioP2;P2;SDS_P1;SDS_P2;PMS_P1;PMS_P2;Temp;Humidity;BMP_temperature;BMP_pressure;BME280_temperature;BME280_humidity;BME280_pressure;Samples;Min_cycle;Max_cycle;Signal;HPM_P1;HPM_P2
2021/01/08 04:09:50;;;;;;;17.35;14.07;;;1.70;99.90;;;;;;5177585;23;20227;-76
2021/01/08 04:12:16;;;;;;;19.13;15.48;;;1.80;99.90;;;;;;5057564;28;20188;-75
2021/01/08 04:14:41;;;;;;;18.42;15.27;;;1.80;99.90;;;;;;5037791;28;20295;-74
2021/01/08 04:17:07;;;;;;;19.73;15.10;;;;;;;;;;5035016;28;20172;-74
2021/01/08 04:19:33;;;;;;;17.88;15.25;;;1.70;99.90;;;;;;5034713;28;20283;-73
2021/01/08 04:21:59;;;;;;;19.17;15.25;;;;;;;;;;5034383;28;20332;-73
2021/01/08 04:24:25;;;;;;;18.85;15.15;;;1.40;99.90;;;;;;5034525;28;20201;-75
2021/01/08 04:26:51;;;;;;;17.67;14.73;;;;;;;;;;5016544;28;20176;-76
2021/01/08 04:29:16;;;;;;;17.40;14.50;;;1.70;99.90;;;;;;5034520;28;20737;-74
2021/01/08 04:31:42;;;;;;;18.60;15.20;;;;;;;;;;5032582;28;20176;-74
2021/01/08 04:34:08;;;;;;;16.50;13.52;;;1.90;99.90;;;;;;5033281;28;20196;-74
2021/01/08 04:36:35;;;;;;;17.73;14.32;;;1.70;99.90;;;;;;5033806;28;20212;-75
2021/01/08 04:39:00;;;;;;;17.85;14.77;;;1.80;99.90;;;;;;5034208;28;20201;-76
2021/01/08 04:41:28;;;;;;;19.60;14.40;;;1.80;99.90;;;;;;5034226;28;20292;-75
2021/01/08 04:43:54;;;;;;;18.10;14.25;;;1.70;99.90;;;;;;5034400;28;20184;-76
2021/01/08 04:46:30;;;;;;;17.45;14.63;;;1.70;99.90;;;;;;5034316;28;20165;-74
2021/01/08 04:49:00;;;;;;;18.48;13.65;;;1.60;99.90;;;;;;5034369;28;20188;-74
2021/01/08 04:51:27;;;;;;;17.20;13.85;;;1.60;99.90;;;;;;5034198;28;20165;-73
2021/01/08 04:53:53;;;;;;;17.52;14.85;;;;;;;;;;5033934;28;20215;-73
2021/01/08 04:56:24;;;;;;;19.48;14.70;;;1.70;99.90;;;;;;5032581;28;20177;-73
2021/01/08 04:58:51;;;;;;;17.88;14.95;;;1.70;99.90;;;;;;5034213;28;20269;-74
2021/01/08 05:01:18;;;;;;;16.55;14.02;;;3.50;99.90;;;;;;5033711;28;20199;-74
2021/01/08 05:03:44;;;;;;;17.90;14.13;;;1.60;99.90;;;;;;5034202;28;20681;-73
2021/01/08 05:06:10;;;;;;;18.88;15.27;;;;;;;;;;5034116;28;20165;-73
2021/01/08 05:08:36;;;;;;;19.50;16.00;;;;;;;;;;5033323;28;20262;-74
2021/01/08 05:11:20;;;;;;;19.70;15.52;;;1.60;99.90;;;;;;5032548;28;20183;-74
2021/01/08 05:14:01;;;;;;;18.55;15.52;;;-0.50;99.90;;;;;;5033723;28;20261;-73
2021/01/08 05:16:29;;;;;;;16.80;14.15;;;1.60;99.90;;;;;;5034332;28;20173;-74
2021/01/08 05:18:56;;;;;;;18.10;14.82;;;1.60;99.90;;;;;;5015768;28;20632;-74
2021/01/08 05:21:25;;;;;;;18.55;14.27;;;1.60;99.90;;;;;;5033768;28;20283;-75
2021/01/08 05:23:56;;;;;;;18.75;15.32;;;1.60;99.90;;;;;;5032590;28;20579;-75
2021/01/08 05:26:23;;;;;;;18.85;15.57;;;1.80;99.90;;;;;;5032446;28;20322;-75
2021/01/08 05:28:51;;;;;;;19.02;14.60;;;1.80;99.90;;;;;;5015352;28;20670;-75
2021/01/08 05:31:18;;;;;;;18.20;15.35;;;1.60;99.90;;;;;;5033500;28;20173;-75
2021/01/08 05:33:45;;;;;;;19.13;15.48;;;1.60;99.90;;;;;;5032009;28;20258;-75
2021/01/08 05:36:11;;;;;;;20.23;15.32;;;1.80;99.90;;;;;;5031495;28;20327;-75
2021/01/08 05:38:41;;;;;;;20.55;15.13;;;1.60;99.90;;;;;;5031313;28;20193;-76
2021/01/08 05:41:09;;;;;;;20.05;16.05;;;1.60;99.90;;;;;;5033144;28;20226;-75
2021/01/08 05:43:38;;;;;;;18.92;14.88;;;1.60;99.90;;;;;;5031969;28;20666;-75
2021/01/08 05:46:18;;;;;;;16.80;14.93;;;1.30;99.90;;;;;;5033315;28;20639;-72
2021/01/08 05:48:57;;;;;;;15.95;14.25;;;1.60;99.90;;;;;;5033138;28;20195;-76
2021/01/08 05:51:29;;;;;;;16.40;13.63;;;1.50;99.90;;;;;;5032887;28;20206;-76
2021/01/08 05:53:59;;;;;;;17.98;14.55;;;1.30;99.90;;;;;;5032827;28;20283;-75
2021/01/08 05:56:25;;;;;;;16.85;13.65;;;1.50;99.90;;;;;;5015013;28;20320;-73
2021/01/08 05:58:51;;;;;;;19.23;15.25;;;1.50;99.90;;;;;;5032969;28;20238;-73
2021/01/08 06:01:18;;;;;;;19.83;16.13;;;1.50;99.90;;;;;;5032333;28;20255;-73
2021/01/08 06:03:45;;;;;;;17.35;14.52;;;1.60;99.90;;;;;;5033035;28;20271;-73
2021/01/08 06:06:12;;;;;;;16.65;14.07;;;1.60;99.90;;;;;;5041326;28;20641;-74
2021/01/08 06:08:55;;;;;;;18.95;14.32;;;1.50;99.90;;;;;;5023432;28;20228;-74
2021/01/08 06:11:21;;;;;;;16.60;14.15;;;;;;;;;;5024329;28;20519;-74
2021/01/08 06:13:52;;;;;;;20.10;15.40;;;1.50;99.90;;;;;;5024071;28;20246;-74
2021/01/08 06:16:19;;;;;;;18.60;14.93;;;1.50;99.90;;;;;;5041925;28;20214;-74
2021/01/08 06:18:48;;;;;;;16.63;13.77;;;1.50;99.90;;;;;;5037599;28;20669;-73
2021/01/08 06:21:14;;;;;;;17.15;14.20;;;1.60;99.90;;;;;;5036500;28;20200;-73
2021/01/08 06:23:47;;;;;;;16.38;14.35;;;1.30;99.90;;;;;;5052164;28;20199;-73
2021/01/08 06:26:15;;;;;;;18.73;14.25;;;1.40;99.90;;;;;;5034143;28;20168;-73
2021/01/08 06:28:42;;;;;;;17.70;13.95;;;1.10;99.90;;;;;;5041655;28;20246;-72
2021/01/08 06:31:21;;;;;;;16.58;14.32;;;1.30;99.90;;;;;;5029559;28;20192;-74
2021/01/08 06:33:58;;;;;;;18.98;15.77;;;1.30;99.90;;;;;;5022053;28;20607;-74
2021/01/08 06:36:26;;;;;;;20.77;18.67;;;1.40;99.90;;;;;;5045830;28;20442;-73
2021/01/08 06:39:11;;;;;;;21.65;17.25;;;1.30;99.90;;;;;;5051378;28;20665;-73
2021/01/08 06:41:39;;;;;;;19.90;17.20;;;1.30;99.90;;;;;;5051160;28;20215;-73
2021/01/08 06:44:06;;;;;;;21.10;17.10;;;1.20;99.90;;;;;;5033591;28;20204;-73
2021/01/08 06:46:39;;;;;;;18.60;16.10;;;1.20;99.90;;;;;;5052095;28;20176;-73
2021/01/08 06:49:08;;;;;;;20.95;16.67;;;1.20;99.90;;;;;;5051841;28;20187;-73
2021/01/08 06:51:39;;;;;;;19.40;15.93;;;1.40;99.90;;;;;;5034169;28;20171;-73
2021/01/08 06:54:12;;;;;;;21.92;16.50;;;1.20;99.90;;;;;;5033694;28;20732;-72
2021/01/08 06:56:43;;;;;;;16.35;14.63;;;1.20;99.90;;;;;;5033930;28;20176;-73
2021/01/08 06:59:10;;;;;;;20.15;15.95;;;1.10;99.90;;;;;;5051931;28;20242;-73
2021/01/08 07:01:56;;;;;;;20.40;16.10;;;1.00;99.90;;;;;;5033272;28;20554;-73
2021/01/08 07:04:29;;;;;;;22.60;16.60;;;1.30;99.90;;;;;;5051904;28;20202;-73
2021/01/08 07:06:58;;;;;;;21.17;16.30;;;1.10;99.90;;;;;;5051916;28;20176;-72
2021/01/08 07:09:34;;;;;;;20.05;15.57;;;1.10;99.90;;;;;;5051445;28;20584;-73
2021/01/08 07:12:01;;;;;;;18.85;15.50;;;1.10;99.90;;;;;;5051981;28;20568;-73
2021/01/08 07:14:27;;;;;;;17.60;14.10;;;1.20;99.90;;;;;;5051553;28;20547;-73
2021/01/08 07:16:54;;;;;;;17.52;15.45;;;1.20;99.90;;;;;;5033755;28;20182;-72
2021/01/08 07:19:22;;;;;;;19.52;15.60;;;1.30;99.90;;;;;;5034263;28;20257;-74
2021/01/08 07:21:52;;;;;;;17.88;14.68;;;1.30;99.90;;;;;;5055822;28;20203;-73
2021/01/08 07:24:29;;;;;;;16.20;14.18;;;1.00;99.90;;;;;;5037412;28;20543;-73
2021/01/08 07:27:25;;;;;;;16.33;14.52;;;1.30;99.90;;;;;;5055990;28;20190;-73
2021/01/08 07:29:55;;;;;;;18.48;14.68;;;1.50;99.90;;;;;;5037633;28;20191;-73
2021/01/08 07:32:36;;;;;;;17.58;14.90;;;1.30;99.90;;;;;;5055661;28;20537;-73
2021/01/08 07:35:23;;;;;;;18.58;14.65;;;1.30;99.90;;;;;;5055091;28;20184;-72
2021/01/08 07:38:09;;;;;;;19.50;15.52;;;1.30;99.90;;;;;;5055291;28;20211;-73
2021/01/08 07:40:40;;;;;;;18.08;15.13;;;1.30;99.90;;;;;;5055440;28;20214;-73
2021/01/08 07:43:10;;;;;;;18.95;14.80;;;1.40;99.90;;;;;;5055490;28;20735;-73
2021/01/08 07:45:52;;;;;;;18.15;15.15;;;1.40;99.90;;;;;;5055255;28;20164;-73
2021/01/08 07:48:26;;;;;;;19.85;15.63;;;1.40;99.90;;;;;;5055464;28;20631;-73
2021/01/08 07:51:01;;;;;;;16.98;15.02;;;1.30;99.90;;;;;;5038945;28;20350;-73
2021/01/08 07:53:46;;;;;;;17.15;14.73;;;1.30;99.90;;;;;;5054992;28;20687;-72
2021/01/08 07:56:12;;;;;;;19.65;15.88;;;1.40;99.90;;;;;;5055291;28;20175;-73
2021/01/08 07:58:37;;;;;;;17.05;14.07;;;1.30;99.90;;;;;;5037066;28;20187;-73
2021/01/08 08:01:04;;;;;;;18.17;14.88;;;1.40;99.90;;;;;;5054979;28;20168;-73
2021/01/08 08:03:30;;;;;;;18.65;15.23;;;;;;;;;;5037188;28;20555;-73
2021/01/08 08:05:56;;;;;;;17.00;14.13;;;1.40;99.90;;;;;;5055031;28;20260;-73
2021/01/08 08:08:23;;;;;;;16.75;14.18;;;1.40;99.90;;;;;;5054613;28;20364;-73
2021/01/08 08:10:49;;;;;;;16.10;13.20;;;1.50;99.90;;;;;;5055525;28;20672;-73
2021/01/08 08:13:15;;;;;;;14.88;13.27;;;1.50;99.90;;;;;;5036745;28;20195;-72
2021/01/08 08:15:47;;;;;;;15.50;13.05;;;1.50;99.90;;;;;;5054982;28;20164;-71
2021/01/08 08:18:13;;;;;;;18.33;14.05;;;1.50;99.90;;;;;;5054683;28;20191;-73
2021/01/08 08:20:38;;;;;;;16.83;13.88;;;1.50;99.90;;;;;;5036939;28;20179;-73
2021/01/08 08:23:17;;;;;;;17.95;14.00;;;1.50;99.90;;;;;;5036508;28;20689;-72
2021/01/08 08:25:43;;;;;;;17.88;13.88;;;1.50;99.90;;;;;;5036694;28;20593;-73
2021/01/08 08:28:10;;;;;;;17.40;14.75;;;1.60;99.90;;;;;;5036697;28;20254;-70
2021/01/08 08:30:36;;;;;;;18.58;14.93;;;1.60;99.90;;;;;;5054277;28;20195;-73
2021/01/08 08:33:05;;;;;;;16.60;14.00;;;1.60;99.90;;;;;;5054419;28;20196;-72
2021/01/08 08:35:33;;;;;;;19.27;14.50;;;1.60;99.90;;;;;;5036458;28;20251;-73
2021/01/08 08:38:00;;;;;;;17.67;14.63;;;1.60;99.90;;;;;;5036064;28;20223;-73
2021/01/08 08:40:27;;;;;;;18.13;15.13;;;1.70;99.90;;;;;;5054366;28;20626;-73
2021/01/08 08:42:58;;;;;;;18.52;14.32;;;1.70;99.90;;;;;;5036871;28;20215;-73
2021/01/08 08:45:24;;;;;;;15.27;13.57;;;1.70;99.90;;;;;;5054713;28;20198;-73
2021/01/08 08:47:55;;;;;;;19.17;15.73;;;1.70;99.90;;;;;;5030041;28;20176;-72
2021/01/08 08:50:22;;;;;;;20.00;16.33;;;1.80;99.90;;;;;;5017346;28;20180;-73
2021/01/08 08:52:48;;;;;;;18.13;14.88;;;1.80;99.90;;;;;;5014202;28;20259;-73
2021/01/08 08:55:28;;;;;;;19.98;16.80;;;1.70;99.90;;;;;;5032957;28;20643;-74
2021/01/08 08:58:12;;;;;;;21.35;17.92;;;1.70;99.90;;;;;;5033374;28;20169;-72
2021/01/08 09:00:40;;;;;;;20.40;17.15;;;1.80;99.90;;;;;;5015612;28;20207;-73
2021/01/08 09:03:22;;;;;;;23.70;18.63;;;1.80;99.90;;;;;;5033215;28;20520;-73
2021/01/08 09:05:49;;;;;;;20.58;16.52;;;1.80;99.90;;;;;;5033172;28;20247;-73
2021/01/08 09:08:19;;;;;;;21.27;17.05;;;0.00;99.90;;;;;;5033160;28;20232;-73
2021/01/08 09:10:51;;;;;;;22.38;17.67;;;1.50;99.90;;;;;;5033919;28;20223;-73
2021/01/08 09:13:34;;;;;;;21.27;16.17;;;2.00;99.90;;;;;;5033906;28;20189;-73
2021/01/08 09:16:04;;;;;;;19.35;15.27;;;1.80;99.90;;;;;;5033822;28;20173;-73
2021/01/08 09:18:49;;;;;;;18.90;15.38;;;1.80;99.90;;;;;;5016059;28;20192;-73
2021/01/08 09:21:31;;;;;;;20.27;16.20;;;1.90;99.90;;;;;;5033757;28;20176;-74
2021/01/08 09:23:59;;;;;;;18.77;15.68;;;1.80;99.90;;;;;;5015435;28;20569;-73
2021/01/08 09:26:25;;;;;;;19.00;15.95;;;1.90;99.90;;;;;;5015817;28;20267;-72
2021/01/08 09:28:52;;;;;;;19.42;15.40;;;1.90;99.90;;;;;;5033742;28;20195;-73
2021/01/08 09:31:19;;;;;;;17.63;14.85;;;1.90;99.90;;;;;;5015736;28;20614;-74
2021/01/08 09:33:58;;;;;;;22.15;15.93;;;2.00;99.90;;;;;;5038386;28;20215;-73
2021/01/08 09:36:35;;;;;;;20.17;16.25;;;2.00;99.90;;;;;;5026191;28;20182;-74
2021/01/08 09:39:08;;;;;;;20.10;17.10;;;2.00;99.90;;;;;;5041515;28;20188;-75
2021/01/08 09:41:36;;;;;;;21.65;16.83;;;2.00;99.90;;;;;;5039177;28;20208;-72
2021/01/08 09:44:06;;;;;;;21.42;17.40;;;2.00;99.90;;;;;;5019725;28;20214;-73
2021/01/08 09:46:59;;;;;;;19.95;17.08;;;2.00;99.90;;;;;;5041851;28;20450;-73
2021/01/08 09:49:42;;;;;;;21.70;17.00;;;2.10;99.90;;;;;;5031200;28;20242;-73
2021/01/08 09:52:10;;;;;;;23.77;17.95;;;2.20;99.90;;;;;;5023824;28;20168;-73
2021/01/08 09:54:44;;;;;;;22.23;17.58;;;2.00;99.90;;;;;;5051099;28;20191;-73
2021/01/08 09:57:35;;;;;;;21.45;17.35;;;2.00;99.90;;;;;;5023876;28;20195;-73
2021/01/08 10:00:09;;;;;;;19.70;16.90;;;2.00;99.90;;;;;;5033373;28;20192;-73
2021/01/08 10:02:42;;;;;;;20.92;17.92;;;2.10;99.90;;;;;;5033354;28;20683;-73
2021/01/08 10:05:20;;;;;;;18.67;15.98;;;2.10;99.90;;;;;;5049538;28;20204;-73
2021/01/08 10:07:50;;;;;;;22.02;17.42;;;2.20;99.90;;;;;;5048425;28;20168;-72
2021/01/08 10:10:17;;;;;;;20.77;17.50;;;2.10;99.90;;;;;;5051178;28;20183;-73
2021/01/08 10:12:49;;;;;;;22.40;17.35;;;2.20;99.90;;;;;;5030581;28;20548;-72
2021/01/08 10:15:17;;;;;;;20.33;17.27;;;2.20;99.90;;;;;;5051157;28;20203;-71
2021/01/08 10:17:51;;;;;;;20.10;17.90;;;2.20;99.90;;;;;;5030344;28;20176;-73
2021/01/08 10:20:24;;;;;;;17.15;15.10;;;2.30;99.90;;;;;;5050914;28;20172;-72
2021/01/08 10:22:51;;;;;;;20.05;16.27;;;2.30;99.90;;;;;;5048645;28;20306;-73
2021/01/08 10:25:28;;;;;;;18.05;16.15;;;2.30;99.90;;;;;;5050965;28;20634;-72
2021/01/08 10:28:08;;;;;;;21.15;16.88;;;2.30;99.90;;;;;;5050814;28;20164;-72
2021/01/08 10:30:34;;;;;;;18.23;15.70;;;2.00;99.90;;;;;;5049945;28;20160;-72
2021/01/08 10:32:59;;;;;;;18.73;15.43;;;2.40;99.90;;;;;;5032906;28;20199;-73
2021/01/08 10:35:25;;;;;;;18.92;15.38;;;2.50;99.90;;;;;;5050846;28;20181;-73
2021/01/08 10:37:51;;;;;;;17.10;14.75;;;2.50;99.90;;;;;;5032589;28;20171;-73
2021/01/08 10:40:16;;;;;;;17.42;15.50;;;2.50;99.90;;;;;;5051204;28;20536;-73
2021/01/08 10:42:42;;;;;;;17.17;15.27;;;2.50;99.90;;;;;;5032814;28;20215;-72
2021/01/08 10:45:08;;;;;;;16.38;14.40;;;2.50;99.90;;;;;;5050556;28;20168;-71
2021/01/08 10:47:34;;;;;;;18.10;14.85;;;2.50;99.90;;;;;;5032803;28;20657;-73
2021/01/08 10:50:00;;;;;;;18.38;16.13;;;2.50;99.90;;;;;;5050428;28;20191;-72
2021/01/08 10:52:26;;;;;;;18.42;15.45;;;2.60;99.90;;;;;;5032215;28;20180;-72
2021/01/08 10:54:52;;;;;;;18.45;15.82;;;2.60;99.90;;;;;;5032453;28;20198;-72
2021/01/08 10:57:18;;;;;;;17.05;14.55;;;2.60;99.90;;;;;;5050556;28;20180;-73
2021/01/08 10:59:43;;;;;;;16.20;14.48;;;2.50;99.90;;;;;;5047693;28;20257;-73
2021/01/08 11:02:11;;;;;;;16.73;14.70;;;2.60;99.90;;;;;;5050290;28;20258;-73
2021/01/08 11:04:37;;;;;;;20.30;16.52;;;2.60;99.90;;;;;;5050181;28;20199;-73
2021/01/08 11:07:02;;;;;;;18.08;15.75;;;2.60;99.90;;;;;;5031999;28;20225;-70
2021/01/08 11:09:28;;;;;;;18.55;16.60;;;2.60;99.90;;;;;;5021842;28;20265;-71
2021/01/08 11:11:54;;;;;;;18.30;15.70;;;2.60;99.90;;;;;;5036183;28;20181;-72
2021/01/08 11:14:19;;;;;;;20.58;16.23;;;2.60;99.90;;;;;;5031557;28;20747;-73
2021/01/08 11:16:45;;;;;;;18.65;16.40;;;2.60;99.90;;;;;;5014177;28;20210;-72
2021/01/08 11:19:11;;;;;;;19.83;15.82;;;2.60;99.90;;;;;;5031646;28;20197;-73
2021/01/08 11:21:37;;;;;;;19.60;17.60;;;2.60;99.90;;;;;;5031690;28;20208;-73
2021/01/08 11:24:02;;;;;;;21.20;18.30;;;2.60;99.90;;;;;;5031324;28;20200;-72
2021/01/08 11:26:29;;;;;;;20.98;18.38;;;2.60;99.90;;;;;;5013989;28;20172;-72
2021/01/08 11:28:56;;;;;;;19.92;17.35;;;2.60;99.90;;;;;;5031557;28;20694;-72
2021/01/08 11:31:31;;;;;;;21.73;18.13;;;2.60;99.90;;;;;;5031763;28;20169;-73
2021/01/08 11:33:57;;;;;;;25.52;19.23;;;2.60;99.90;;;;;;5031526;28;20192;-73
2021/01/08 11:36:23;;;;;;;22.08;19.10;;;2.70;99.90;;;;;;5020325;28;20176;-73
2021/01/08 11:38:48;;;;;;;24.42;20.30;;;2.70;99.90;;;;;;5039416;28;20246;-72
2021/01/08 11:41:17;;;;;;;21.63;19.08;;;2.70;99.90;;;;;;5048134;28;20171;-73
2021/01/08 11:43:43;;;;;;;22.00;19.23;;;2.70;99.90;;;;;;5043707;28;20196;-73
2021/01/08 11:46:13;;;;;;;22.67;18.90;;;2.70;99.90;;;;;;5041919;28;20165;-74
2021/01/08 11:48:39;;;;;;;21.77;17.92;;;2.80;99.90;;;;;;5039315;28;20219;-73
2021/01/08 11:51:04;;;;;;;22.00;18.67;;;2.80;99.90;;;;;;5031453;28;20173;-72
2021/01/08 11:53:30;;;;;;;20.08;17.70;;;2.90;99.90;;;;;;5033731;28;20595;-72
2021/01/08 11:55:56;;;;;;;21.92;18.77;;;2.90;99.90;;;;;;5034897;28;20247;-72
2021/01/08 11:58:21;;;;;;;22.70;17.60;;;3.00;99.90;;;;;;5038902;28;20327;-73
2021/01/08 12:00:47;;;;;;;20.45;18.08;;;3.00;99.90;;;;;;5024091;28;20258;-73
2021/01/08 12:03:12;;;;;;;21.33;17.58;;;3.00;99.90;;;;;;5040923;28;20212;-72
2021/01/08 12:05:38;;;;;;;18.77;16.52;;;3.00;99.90;;;;;;5047900;28;20175;-72
2021/01/08 12:08:04;;;;;;;21.20;17.70;;;3.00;99.90;;;;;;5026434;28;20199;-72
2021/01/08 12:10:30;;;;;;;22.58;17.80;;;3.10;99.90;;;;;;5043829;28;20676;-72
2021/01/08 12:12:56;;;;;;;18.75;16.80;;;3.00;99.90;;;;;;5027772;28;20630;-72
2021/01/08 12:15:21;;;;;;;22.25;18.02;;;3.00;99.90;;;;;;5044108;28;20510;-72
2021/01/08 12:17:47;;;;;;;19.27;17.33;;;3.00;99.90;;;;;;5044084;28;20175;-72
2021/01/08 12:20:13;;;;;;;19.58;17.48;;;3.00;99.90;;;;;;5045474;28;20230;-72
2021/01/08 12:22:40;;;;;;;20.63;17.17;;;3.00;99.90;;;;;;5042897;28;20687;-72
2021/01/08 12:25:07;;;;;;;19.83;17.73;;;3.00;99.90;;;;;;5054970;28;20557;-72
2021/01/08 12:27:33;;;;;;;19.30;17.20;;;3.10;99.90;;;;;;5054340;28;20651;-72
2021/01/08 12:29:58;;;;;;;18.95;16.83;;;3.00;99.90;;;;;;5036175;28;20230;-71
2021/01/08 12:32:24;;;;;;;18.75;16.75;;;3.10;99.90;;;;;;5032310;28;20172;-69
2021/01/08 12:34:49;;;;;;;19.42;16.45;;;3.10;99.90;;;;;;5052080;28;20701;-71
2021/01/08 12:37:15;;;;;;;19.60;17.35;;;3.10;99.90;;;;;;5051694;28;20581;-70
2021/01/08 12:39:42;;;;;;;19.38;17.02;;;3.10;99.90;;;;;;5053420;28;20721;-70
2021/01/08 12:42:08;;;;;;;18.13;16.17;;;3.10;99.90;;;;;;5035758;28;20212;-71
2021/01/08 12:44:33;;;;;;;19.58;17.52;;;3.10;99.90;;;;;;5035956;28;20202;-71
2021/01/08 12:47:02;;;;;;;18.65;16.58;;;3.20;99.90;;;;;;5050995;28;20178;-71
2021/01/08 12:49:27;;;;;;;21.30;16.45;;;3.20;99.90;;;;;;5035874;28;20196;-71
2021/01/08 12:51:53;;;;;;;20.13;17.58;;;3.20;99.90;;;;;;5054060;28;20166;-72
2021/01/08 12:54:19;;;;;;;20.23;16.80;;;3.20;99.90;;;;;;5053756;28;20192;-71
2021/01/08 12:56:45;;;;;;;20.30;17.50;;;3.20;99.90;;;;;;5054181;28;20180;-71
2021/01/08 12:59:10;;;;;;;21.00;17.42;;;3.20;99.90;;;;;;5052561;28;20662;-71
2021/01/08 13:01:36;;;;;;;22.38;17.92;;;3.20;99.90;;;;;;5041983;28;20197;-73
2021/01/08 13:04:02;;;;;;;17.95;16.05;;;3.20;99.90;;;;;;5016550;28;20200;-73
2021/01/08 13:06:28;;;;;;;19.70;16.98;;;3.20;99.90;;;;;;5016175;28;20177;-74
2021/01/08 13:08:55;;;;;;;21.02;17.08;;;3.20;99.90;;;;;;5020481;28;20662;-73
2021/01/08 13:11:22;;;;;;;20.98;17.13;;;3.20;99.90;;;;;;5032410;28;20180;-74
2021/01/08 13:13:48;;;;;;;20.45;17.13;;;3.20;99.90;;;;;;5034175;28;20192;-72
2021/01/08 13:16:32;;;;;;;19.50;15.95;;;3.20;99.90;;;;;;5034312;28;20263;-77
2021/01/08 13:18:58;;;;;;;19.15;16.77;;;3.20;99.90;;;;;;5051967;28;20219;-78
2021/01/08 13:21:23;;;;;;;20.67;16.92;;;3.20;99.90;;;;;;5034036;28;20260;-81
2021/01/08 13:23:49;;;;;;;21.30;17.35;;;3.20;99.90;;;;;;5033705;28;20195;-77
2021/01/08 13:26:23;;;;;;;20.00;17.83;;;3.20;99.90;;;;;;5033536;28;20187;-80
2021/01/08 13:28:49;;;;;;;21.63;17.50;;;3.20;99.90;;;;;;5034252;28;20219;-80
2021/01/08 13:31:21;;;;;;;20.65;17.88;;;3.20;99.90;;;;;;5048664;28;20199;-81
2021/01/08 13:33:47;;;;;;;20.70;17.42;;;3.20;99.90;;;;;;5033744;28;20653;-77
2021/01/08 13:36:13;;;;;;;22.13;18.55;;;3.20;99.90;;;;;;5033742;28;20250;-80
2021/01/08 13:38:39;;;;;;;20.77;18.45;;;3.20;99.90;;;;;;5034008;28;20204;-80
2021/01/08 13:41:05;;;;;;;23.05;20.50;;;3.20;99.90;;;;;;5045506;28;20235;-80
2021/01/08 13:43:33;;;;;;;20.30;17.38;;;3.00;99.90;;;;;;5033704;28;20207;-82
2021/01/08 13:46:00;;;;;;;19.58;17.45;;;3.20;99.90;;;;;;5041582;28;20172;-80
2021/01/08 13:48:26;;;;;;;21.40;18.52;;;3.20;99.90;;;;;;5016067;28;20665;-82
2021/01/08 13:50:52;;;;;;;19.35;17.02;;;3.20;99.90;;;;;;5051781;28;20214;-81
2021/01/08 13:53:18;;;;;;;22.25;18.35;;;3.20;99.90;;;;;;5051733;28;20191;-82
2021/01/08 13:55:43;;;;;;;24.73;19.65;;;3.20;99.90;;;;;;5051685;28;20168;-82
2021/01/08 13:58:09;;;;;;;23.50;19.50;;;3.20;99.90;;;;;;5033793;28;20191;-83
2021/01/08 14:00:35;;;;;;;24.27;18.60;;;3.20;99.90;;;;;;5050748;28;20270;-83
2021/01/08 14:03:01;;;;;;;21.20;18.92;;;3.20;99.90;;;;;;5051591;28;20210;-82
2021/01/08 14:05:26;;;;;;;20.75;18.48;;;3.20;99.90;;;;;;5051800;28;20171;-82
2021/01/08 14:07:53;;;;;;;23.77;19.10;;;3.20;99.90;;;;;;5051229;28;20871;-81
2021/01/08 14:10:19;;;;;;;21.05;18.13;;;3.20;99.90;;;;;;5032263;28;20314;-81
2021/01/08 14:12:45;;;;;;;23.90;19.70;;;3.20;99.90;;;;;;5051111;28;20581;-81
2021/01/08 14:15:11;;;;;;;24.48;19.88;;;3.20;99.90;;;;;;5051525;28;20174;-81
2021/01/08 14:17:39;;;;;;;22.58;19.00;;;3.20;99.90;;;;;;5028645;28;20192;-81
2021/01/08 14:20:05;;;;;;;20.65;18.40;;;3.20;99.90;;;;;;5049577;28;20647;-76
2021/01/08 14:22:31;;;;;;;21.85;18.83;;;3.20;99.90;;;;;;5044589;28;20242;-80
2021/01/08 14:24:58;;;;;;;19.90;17.40;;;3.20;99.90;;;;;;5051032;28;20187;-78
2021/01/08 14:27:23;;;;;;;22.65;18.55;;;3.20;99.90;;;;;;5050849;28;20176;-86
2021/01/08 14:29:49;;;;;;;22.67;18.50;;;3.20;99.90;;;;;;5032735;28;20196;-87
2021/01/08 14:32:15;;;;;;;24.52;19.27;;;3.20;99.90;;;;;;5032597;28;20568;-80
2021/01/08 14:34:41;;;;;;;20.92;18.55;;;3.20;99.90;;;;;;5051374;28;20265;-79
2021/01/08 14:37:07;;;;;;;22.65;19.35;;;3.20;99.90;;;;;;5051696;28;20172;-77
2021/01/08 14:39:33;;;;;;;22.30;19.70;;;3.10;99.90;;;;;;5032644;28;20195;-78
2021/01/08 14:41:58;;;;;;;21.25;18.55;;;3.10;99.90;;;;;;5028382;28;20546;-78
2021/01/08 14:44:24;;;;;;;21.63;18.92;;;3.10;99.90;;;;;;5048863;28;20187;-76
2021/01/08 14:46:50;;;;;;;22.75;20.17;;;3.10;99.90;;;;;;5050140;28;20466;-79
2021/01/08 14:49:16;;;;;;;20.92;18.67;;;3.10;99.90;;;;;;5051574;28;20203;-79
2021/01/08 14:51:43;;;;;;;23.50;19.42;;;3.00;99.90;;;;;;5034154;28;20262;-79
2021/01/08 14:54:09;;;;;;;21.73;19.30;;;3.10;99.90;;;;;;5033536;28;20200;-78
2021/01/08 14:56:46;;;;;;;23.95;19.95;;;3.00;99.90;;;;;;5035917;28;20179;-78
2021/01/08 14:59:13;;;;;;;25.20;20.48;;;3.00;99.90;;;;;;5036447;28;20679;-78
2021/01/08 15:01:39;;;;;;;25.35;19.27;;;3.10;99.90;;;;;;5014882;28;20196;-78
2021/01/08 15:04:05;;;;;;;23.63;19.48;;;2.70;99.90;;;;;;5019701;28;20204;-80
2021/01/08 15:06:33;;;;;;;25.10;20.02;;;3.10;99.90;;;;;;5018326;28;20696;-80
2021/01/08 15:09:00;;;;;;;23.17;20.25;;;3.10;99.90;;;;;;5025973;28;20626;-81
2021/01/08 15:11:33;;;;;;;21.77;18.48;;;3.10;99.90;;;;;;5033233;28;20180;-84
2021/01/08 15:13:59;;;;;;;21.80;18.13;;;3.10;99.90;;;;;;5039399;28;20203;-76
2021/01/08 15:16:25;;;;;;;21.13;18.65;;;3.10;99.90;;;;;;5028379;28;20176;-81
2021/01/08 15:18:52;;;;;;;22.45;18.30;;;3.10;99.90;;;;;;5050034;28;20231;-84
2021/01/08 15:21:18;;;;;;;23.50;19.60;;;3.00;99.90;;;;;;5024129;28;20175;-76
2021/01/08 15:23:44;;;;;;;20.23;18.02;;;3.00;99.90;;;;;;5046349;28;20688;-76
2021/01/08 15:26:18;;;;;;;24.08;19.80;;;3.00;99.90;;;;;;5018218;28;20180;-77
2021/01/08 15:28:44;;;;;;;25.70;23.00;;;2.90;99.90;;;;;;5035259;28;20436;-79
2021/01/08 15:31:11;;;;;;;25.52;20.65;;;2.90;99.90;;;;;;5030095;28;20188;-87
2021/01/08 15:33:37;;;;;;;23.33;19.70;;;2.90;99.90;;;;;;5033904;28;20196;-82
2021/01/08 15:36:04;;;;;;;22.17;19.58;;;2.90;99.90;;;;;;5034102;28;20168;-81
2021/01/08 15:38:37;;;;;;;22.63;19.27;;;2.90;99.90;;;;;;5034703;28;20262;-79
2021/01/08 15:41:04;;;;;;;21.27;17.98;;;2.80;99.90;;;;;;5019499;28;20184;-79
2021/01/08 15:43:30;;;;;;;20.75;18.27;;;2.50;99.90;;;;;;5018814;28;20271;-81
2021/01/08 15:45:56;;;;;;;23.20;19.38;;;2.70;99.90;;;;;;5035344;28;20173;-78
2021/01/08 15:48:24;;;;;;;24.52;19.50;;;2.50;99.90;;;;;;5042169;28;20199;-82
2021/01/08 15:50:50;;;;;;;20.77;18.55;;;2.90;99.90;;;;;;5026107;28;20185;-80
2021/01/08 15:53:16;;;;;;;21.50;18.13;;;2.80;99.90;;;;;;5042312;28;20226;-76
2021/01/08 15:55:43;;;;;;;23.50;19.50;;;2.70;99.90;;;;;;5028642;28;20172;-78
2021/01/08 15:58:10;;;;;;;25.10;20.15;;;2.50;99.90;;;;;;5054991;28;20196;-77
2021/01/08 16:00:39;;;;;;;27.40;19.73;;;2.70;99.90;;;;;;5023292;28;20546;-77
2021/01/08 16:03:06;;;;;;;23.80;20.27;;;2.70;99.90;;;;;;5035455;28;20714;-79
2021/01/08 16:05:32;;;;;;;22.80;19.30;;;2.60;99.90;;;;;;5016792;28;20181;-78
2021/01/08 16:07:59;;;;;;;22.85;19.23;;;2.60;99.90;;;;;;5034630;28;20647;-82
2021/01/08 16:10:29;;;;;;;24.08;19.08;;;2.50;99.90;;;;;;5017499;28;20232;-81
2021/01/08 16:12:55;;;;;;;22.77;18.75;;;2.60;99.90;;;;;;5017441;28;20180;-74
2021/01/08 16:15:22;;;;;;;24.35;19.88;;;2.20;99.90;;;;;;5034892;28;20191;-75
2021/01/08 16:17:52;;;;;;;24.77;20.48;;;2.50;99.90;;;;;;5037263;28;20295;-74
2021/01/08 16:20:18;;;;;;;25.85;19.98;;;2.20;99.90;;;;;;5026489;28;20178;-82
2021/01/08 16:22:49;;;;;;;24.77;20.77;;;2.40;99.90;;;;;;5036536;28;20550;-82
2021/01/08 16:25:16;;;;;;;28.92;21.27;;;2.50;99.90;;;;;;5037125;28;20179;-82
2021/01/08 16:27:42;;;;;;;24.80;21.10;;;2.40;99.90;;;;;;5036751;28;20564;-82
2021/01/08 16:30:18;;;;;;;26.88;21.02;;;2.40;99.90;;;;;;5055168;28;20175;-77
2021/01/08 16:32:44;;;;;;;27.63;22.33;;;2.40;99.90;;;;;;5053836;28;20175;-81
2021/01/08 16:35:12;;;;;;;24.08;19.50;;;2.40;99.90;;;;;;5054281;28;20175;-79
2021/01/08 16:37:40;;;;;;;27.92;21.98;;;2.60;99.90;;;;;;5054242;28;20533;-78
2021/01/08 16:40:11;;;;;;;29.95;23.25;;;2.30;99.90;;;;;;5036335;28;20175;-77
2021/01/08 16:42:37;;;;;;;27.85;22.25;;;;;;;;;;5036537;28;20211;-77
2021/01/08 16:45:04;;;;;;;24.23;20.77;;;2.40;99.90;;;;;;5034475;28;20196;-78
2021/01/08 16:47:29;;;;;;;23.25;19.33;;;2.20;99.90;;;;;;5036068;28;20180;-77
2021/01/08 16:49:55;;;;;;;26.73;22.33;;;2.40;99.90;;;;;;5038551;28;20192;-75
2021/01/08 16:52:21;;;;;;;27.90;23.50;;;2.30;99.90;;;;;;5044516;28;20173;-77
2021/01/08 16:54:48;;;;;;;27.02;22.55;;;2.30;99.90;;;;;;5044396;28;20234;-80
2021/01/08 16:57:15;;;;;;;28.48;23.33;;;2.30;99.90;;;;;;5053013;28;20567;-79